Station: Yampi Sound (Defence)  

  Atmospheric Gas Attenuation - ITU Rec 676-11   ----------------- dB/100km -----------------
Date Time Temp RH % AH g/m3 Dew Point Wind Direction Speed kph Gust kph Barometer mB Rainfall Since 9am 24GHz 47GHz 76GHz 122GHz 134GHz 241GHz
08/05 20:50 18.4 70 11.01 12.8 2 4 1018.3 0 24.5 28.6 47.3 124.5 124.5 430.2
08/05 20:40 19 67 10.92 12.7 4 4 1018.3 0 24.2 28.3 46.6 122.5 122.3 422.7
08/05 20:30 19.5 66 11.08 13 4 6 1018.4 0 24.6 28.4 46.9 123.5 123.6 427.5
08/05 20:20 19.6 64 10.8 12.6 4 4 1018.3 0 24.0 27.9 45.7 120.3 119.8 413.9
08/05 20:10 20 65 11.23 13.4 4 4 1018.2 0 24.8 28.5 47.2 124.3 124.8 431.7
08/05 20:00 20 62 10.71 12.5 4 7 1018.1 0 23.7 27.6 45.1 118.7 117.9 407.6
08/05 19:50 20.6 56 10.02 11.7 4 4 1018 0 22.3 26.3 42.1 110.6 108.2 373.5
08/05 19:40 20.8 59 10.68 12.7 4 4 1017.8 0 23.6 27.3 44.6 117.2 116.3 402.1
08/05 19:30 20.7 60 10.8 12.7 4 6 1017.8 0 23.9 27.5 45.1 118.6 118.0 408.0
08/05 19:20 19.9 65 11.17 13.1 4 6 1017.7 0 24.7 28.4 47.0 123.8 124.1 429.2
08/05 19:10 20 68 11.75 13.9 4 6 1017.7 0 25.9 29.3 49.3 129.9 131.8 455.9
08/05 19:00 20.6 73 13.06 15.6 2 2 1017.4 0 28.7 31.3 54.4 143.5 148.6 514.9
08/05 18:50 21.6 57 10.81 12.9 2 4 1017.2 0 23.9 27.2 44.6 117.3 116.8 403.7
08/05 18:40 21.7 53 10.11 11.7 4 6 1017.2 0 22.4 26.1 41.8 110.0 107.7 372.1
08/05 18:30 21.9 53 10.23 11.9 4 7 1017.1 0 22.6 26.3 42.2 110.9 109.0 376.4
08/05 18:20 22.3 52 10.27 12.2 4 4 1017.1 0 22.7 26.2 42.1 110.7 108.9 376.3
08/05 18:10 23.1 46 9.51 11.1 4 6 1016.8 0 21.1 24.8 38.9 102.1 98.5 340.0
08/05 18:00 23.9 43 9.3 10.6 4 6 1016.7 0 20.6 24.3 37.7 99.0 95.0 327.9
08/05 17:50 24.6 39 8.78 9.7 6 6 1016.7 0 19.5 23.4 35.6 93.3 88.1 303.9
08/05 17:40 24.9 38 8.7 9.6 4 6 1016.6 0 19.3 23.2 35.2 92.2 86.9 299.5
08/05 17:30 25.6 36 8.57 9.4 6 9 1016.5 0 19.0 22.8 34.4 90.2 84.7 291.8
08/05 17:20 26 34 8.28 9.3 7 9 1016.4 0 18.4 22.3 33.3 87.1 81.0 279.0
08/05 17:10 26.6 33 8.31 9.4 4 6 1016.3 0 18.4 22.2 33.1 86.8 80.7 278.1
08/05 17:00 27 33 8.49 9.4 7 11 1016.1 0 18.7 22.3 33.6 87.9 82.3 283.7
08/05 16:50 27.4 32 8.42 9.2 7 11 1016 0 18.6 22.2 33.2 86.9 81.1 279.6
08/05 16:40 27.8 30 8.07 8.6 7 9 1015.9 0 17.8 21.6 31.8 83.4 76.9 264.9
08/05 16:30 28.2 29 7.97 8.5 7 15 1015.9 0 17.6 21.4 31.4 82.1 75.5 259.9
08/05 16:20 28.5 28 7.83 8.2 9 11 1015.9 0 17.3 21.1 30.8 80.6 73.7 253.7
08/05 16:10 29 27 7.76 8.1 13 19 1015.9 0 17.1 20.9 30.4 79.5 72.6 249.6
08/05 16:00 29.2 27 7.84 8.3 13 20 1015.8 0 17.3 21.0 30.6 80.0 73.2 252.0
08/05 15:50 29.8 26 7.8 8.2 13 20 1015.6 0 17.2 20.8 30.2 79.1 72.2 248.7
08/05 15:40 29.9 26 7.84 8.8 9 13 1015.4 0 17.3 20.8 30.3 79.3 72.6 249.8
08/05 15:30 29.9 26 7.84 8.3 13 19 1015.4 0 17.3 20.8 30.3 79.3 72.6 249.8
08/05 15:20 30.1 26 7.93 8.5 13 17 1015.4 0 17.5 20.9 30.5 79.9 73.3 252.5
08/05 15:10 30.1 25 7.62 7.9 11 13 1015.5 0 16.8 20.5 29.6 77.3 70.1 241.2
08/05 15:00 30.4 25 7.75 8.2 15 20 1015.5 0 17.1 20.6 29.9 78.1 71.2 245.1
08/05 14:50 30.6 25 7.83 8.3 13 15 1015.5 0 17.2 20.6 30.0 78.6 71.9 247.4
08/05 14:40 30.8 24 7.6 7.9 17 19 1015.6 0 16.7 20.3 29.3 76.5 69.3 238.5
08/05 14:30 30.9 24 7.64 8 13 20 1015.6 0 16.8 20.3 29.3 76.8 69.7 239.7
08/05 14:20 30.9 25 7.96 9.1 9 15 1015.6 0 17.5 20.7 30.3 79.4 72.9 251.2
08/05 14:10 30.7 26 8.19 9 19 22 1015.7 0 18.0 21.1 31.1 81.5 75.5 260.2
08/05 14:00 30.2 25 7.67 8 17 24 1015.8 0 16.9 20.5 29.7 77.7 70.6 242.8
08/05 13:50 30.9 25 7.96 8.6 19 20 1015.9 0 17.5 20.7 30.3 79.4 73.0 251.2
08/05 13:40 30.9 25 7.96 9.1 4 7 1016 0 17.5 20.7 30.4 79.4 73.0 251.3
08/05 13:30 30.6 25 7.83 8.3 13 20 1016.1 0 17.2 20.7 30.1 78.6 71.9 247.5
08/05 13:20 30.5 26 8.1 8.8 7 9 1016.1 0 17.8 21.0 30.9 81.0 74.8 257.6
08/05 13:10 30.7 25 7.87 8.4 7 9 1016.2 0 17.3 20.7 30.1 78.9 72.2 248.7
08/05 13:00 30.3 26 8.01 8.7 13 20 1016.2 0 17.6 21.0 30.7 80.4 74.0 254.9
08/05 12:50 30.7 25 7.87 8.4 13 19 1016.4 0 17.3 20.7 30.2 78.9 72.2 248.7
08/05 12:40 30.4 25 7.75 8.1 13 17 1016.5 0 17.1 20.6 29.9 78.2 71.3 245.3
08/05 12:30 30.1 25 7.62 7.9 13 22 1016.8 0 16.8 20.5 29.6 77.4 70.2 241.5
08/05 12:20 30.3 26 8.01 8.6 13 15 1017 0 17.6 21.0 30.8 80.5 74.1 255.1
08/05 12:10 30 26 7.89 8.4 11 15 1017.2 0 17.4 20.9 30.5 79.8 73.1 251.7
08/05 12:00 29.8 26 7.8 8.2 11 19 1017.3 0 17.2 20.8 30.3 79.2 72.4 249.0
08/05 11:50 29.6 26 7.72 8 9 11 1017.6 0 17.0 20.8 30.1 78.8 71.7 246.7
08/05 11:40 29.9 28 8.45 9.4 13 15 1017.8 0 18.5 21.7 32.3 84.7 79.1 272.8
08/05 11:30 29.5 27 7.97 8.5 11 22 1017.9 0 17.6 21.1 31.0 81.0 74.4 256.3
08/05 11:20 29.4 27 7.93 8.4 13 17 1018.1 0 17.5 21.1 30.9 80.8 74.1 255.2
08/05 11:10 29.1 28 8.09 8.7 13 15 1018.2 0 17.8 21.4 31.5 82.5 76.1 262.0
08/05 11:00 29.1 28 8.09 8.7 11 20 1018.4 0 17.8 21.4 31.5 82.5 76.1 262.1
08/05 10:50 28.8 29 8.24 9 15 19 1018.6 0 18.1 21.7 32.1 84.1 78.0 268.7
08/05 10:40 28.1 30 8.2 8.9 15 19 1018.8 0 18.1 21.8 32.3 84.5 78.2 269.5
08/05 10:30 28.1 29 7.93 8.4 15 24 1019 0 17.5 21.4 31.4 82.1 75.4 259.4
08/05 10:20 28.1 29 7.93 8.4 15 19 1019.2 0 17.5 21.4 31.4 82.2 75.4 259.4
08/05 10:10 27.8 31 8.34 9.1 11 20 1019.4 0 18.4 22.1 32.9 86.1 80.1 276.0
08/05 10:00 27.8 31 8.34 9.1 13 22 1019.5 0 18.4 22.1 32.9 86.1 80.1 276.0
08/05 09:50 27.3 31 8.11 8.7 15 20 1019.7 0 17.9 21.9 32.3 84.6 78.1 268.9
08/05 09:40 26.9 31 7.93 8.3 11 19 1019.6 0 17.6 21.7 31.9 83.4 76.5 263.3
08/05 09:30 26.5 31 7.76 8 13 20 1019.7 0 17.2 21.6 31.5 82.3 75.0 258.1
08/05 09:20 26.2 30 7.39 7.2 11 15 1019.8 0 16.5 21.2 30.4 79.4 71.3 245.0
08/05 09:10 26.4 31 7.72 7.9 19 26 1019.9 0 17.2 21.6 31.4 82.1 74.7 256.9
08/05 09:00 25.7 33 7.9 8.2 15 22 1019.9 0 17.6 22.0 32.2 84.4 77.3 266.0
08/05 08:50 25.5 34 8.05 8.5 11 15 1019.9 0 17.9 22.2 32.8 85.9 79.2 272.5
08/05 08:40 25.2 34 7.92 8.2 17 22 1019.9 0 17.6 22.1 32.5 85.1 78.0 268.4
08/05 08:30 24.8 35 7.97 8.3 11 22 1019.9 0 17.8 22.3 32.8 85.9 79.0 271.7
08/05 08:20 23.8 38 8.17 8.6 9 11 1019.9 0 18.2 22.8 33.9 88.8 82.2 283.0
08/05 08:10 23.3 38 7.94 8.5 7 9 1020 0 17.8 22.6 33.3 87.2 80.1 275.5
08/05 08:00 22.9 42 8.58 9.3 7 17 1020 0 19.1 23.6 35.7 93.7 87.9 302.9
08/05 07:50 22.1 43 8.39 8.9 9 9 1019.9 0 18.7 23.5 35.4 92.8 86.6 298.0
08/05 07:40 21.5 44 8.3 9 9 9 1019.9 0 18.6 23.6 35.4 92.6 86.2 296.5
08/05 07:30 21 51 9.34 10.5 4 7 1019.9 0 20.8 25.2 39.4 103.4 99.3 342.5
08/05 07:20 19.8 55 9.39 10.7 2 2 1019.9 0 21.0 25.7 40.2 105.5 101.5 349.9
08/05 07:10 19.2 56 9.23 10.4 4 4 1019.9 0 20.7 25.6 39.9 104.6 100.2 345.4
08/05 07:00 18.7 61 9.77 11 2 6 1019.9 0 21.8 26.6 42.2 110.9 107.8 371.8
08/05 06:50 18.1 69 10.66 12.3 2 4 1019.7 0 23.7 28.2 46.1 121.3 120.4 415.8
08/05 06:40 17.4 69 10.23 11.6 2 2 1019.5 0 22.9 27.7 44.8 117.6 115.6 399.2
08/05 06:30 17.1 73 10.63 12.2 2 4 1019.4 0 23.7 28.5 46.6 122.5 121.5 419.6
08/05 06:20 17.3 69 10.16 11.7 4 4 1019.3 0 22.7 27.6 44.5 117.0 114.8 396.4
08/05 06:10 17.4 59 8.74 9.3 4 4 1013.1 0 19.7 25.1 38.6 101.2 95.7 329.6
08/05 06:00 17.5 58 8.65 9.2 4 7 1013.1 0 19.5 24.9 38.2 100.2 94.5 325.2
08/05 05:50 17.5 59 8.8 9.4 4 4 1013.1 0 19.8 25.2 38.8 101.7 96.4 331.8
08/05 05:40 17.3 61 8.99 9.7 4 6 1019 0 20.2 25.7 39.8 104.5 99.5 342.7
08/05 05:30 17.2 62 9.08 9.9 4 7 1018.8 0 20.4 25.9 40.2 105.6 100.8 347.2
08/05 05:20 16.8 63 9.01 9.7 4 4 1018.9 0 20.3 25.9 40.2 105.4 100.4 345.8
08/05 05:10 16.7 69 9.81 11 4 4 1018.9 0 22.0 27.2 43.4 114.0 111.0 382.9
08/05 05:00 16.5 77 10.81 12.5 0 2 1018.8 0 24.2 28.9 47.6 125.3 124.9 431.3
08/05 04:50 16.7 71 10.09 11.4 0 0 1018.7 0 22.6 27.7 44.5 117.1 114.7 396.0
08/05 04:40 16.9 78 11.22 13 0 0 1018.5 0 25.0 29.5 49.1 129.3 129.8 448.8
08/05 04:30 17.3 69 10.16 11.6 4 4 1018.4 0 22.7 27.6 44.5 116.9 114.8 396.1
08/05 04:20 17.4 73 10.82 12.5 4 6 1018.4 0 24.1 28.6 47.1 124.0 123.5 426.7

Last Refresh: 08-May-2026 22:35:55

Bureau of Meteorology